sensor_id;sensor_type;location;lat;lon;timestamp;temperature;humidity
484;DHT22;228;48.922;12.198;2023-08-21T04:02:10;22.60;90.70
484;DHT22;228;48.922;12.198;2023-08-21T04:04:36;22.40;90.70
484;DHT22;228;48.922;12.198;2023-08-21T04:07:03;22.40;91.10
484;DHT22;228;48.922;12.198;2023-08-21T04:09:29;22.40;91.40
484;DHT22;228;48.922;12.198;2023-08-21T04:11:55;22.30;92.60
484;DHT22;228;48.922;12.198;2023-08-21T04:16:48;21.60;95.10
484;DHT22;228;48.922;12.198;2023-08-21T04:19:14;21.00;99.50
484;DHT22;228;48.922;12.198;2023-08-21T04:21:40;21.90;98.20
484;DHT22;228;48.922;12.198;2023-08-21T04:24:06;21.90;96.00
484;DHT22;228;48.922;12.198;2023-08-21T04:26:32;22.10;95.60
484;DHT22;228;48.922;12.198;2023-08-21T04:28:58;22.20;94.60
484;DHT22;228;48.922;12.198;2023-08-21T04:31:24;22.20;94.30
484;DHT22;228;48.922;12.198;2023-08-21T04:33:51;22.30;94.10
484;DHT22;228;48.922;12.198;2023-08-21T04:36:17;22.40;93.90
484;DHT22;228;48.922;12.198;2023-08-21T04:38:45;22.30;93.80
484;DHT22;228;48.922;12.198;2023-08-21T04:41:11;22.30;93.90
484;DHT22;228;48.922;12.198;2023-08-21T04:43:42;22.30;93.90
484;DHT22;228;48.922;12.198;2023-08-21T04:46:10;22.30;94.70
484;DHT22;228;48.922;12.198;2023-08-21T04:48:38;22.40;94.00
484;DHT22;228;48.922;12.198;2023-08-21T04:51:04;22.40;93.60
484;DHT22;228;48.922;12.198;2023-08-21T04:53:30;22.40;93.40
484;DHT22;228;48.922;12.198;2023-08-21T04:56:01;22.40;93.20
484;DHT22;228;48.922;12.198;2023-08-21T04:58:27;22.30;93.40
484;DHT22;228;48.922;12.198;2023-08-21T05:00:54;22.40;93.50
484;DHT22;228;48.922;12.198;2023-08-21T05:03:21;22.40;93.40
484;DHT22;228;48.922;12.198;2023-08-21T05:05:55;22.50;93.20
484;DHT22;228;48.922;12.198;2023-08-21T05:08:23;22.50;93.20
484;DHT22;228;48.922;12.198;2023-08-21T05:11:00;22.60;93.10
484;DHT22;228;48.922;12.198;2023-08-21T05:13:30;22.70;93.20
484;DHT22;228;48.922;12.198;2023-08-21T05:15:57;22.80;93.00
484;DHT22;228;48.922;12.198;2023-08-21T05:18:25;23.00;93.00
484;DHT22;228;48.922;12.198;2023-08-21T05:20:55;23.10;92.90
484;DHT22;228;48.922;12.198;2023-08-21T05:23:22;23.20;92.60
484;DHT22;228;48.922;12.198;2023-08-21T05:25:50;23.30;92.60
484;DHT22;228;48.922;12.198;2023-08-21T05:28:16;23.50;92.60
484;DHT22;228;48.922;12.198;2023-08-21T05:30:42;23.60;92.60
484;DHT22;228;48.922;12.198;2023-08-21T05:33:08;23.70;92.70
484;DHT22;228;48.922;12.198;2023-08-21T05:35:36;23.90;92.50
484;DHT22;228;48.922;12.198;2023-08-21T05:38:03;24.00;92.20
484;DHT22;228;48.922;12.198;2023-08-21T05:40:29;24.10;91.90
484;DHT22;228;48.922;12.198;2023-08-21T05:42:56;24.20;91.70
484;DHT22;228;48.922;12.198;2023-08-21T05:45:22;24.30;91.70
484;DHT22;228;48.922;12.198;2023-08-21T05:47:48;24.50;91.70
484;DHT22;228;48.922;12.198;2023-08-21T05:50:14;24.60;91.60
484;DHT22;228;48.922;12.198;2023-08-21T05:52:40;24.50;92.00
484;DHT22;228;48.922;12.198;2023-08-21T05:55:07;24.60;91.30
484;DHT22;228;48.922;12.198;2023-08-21T05:57:33;24.90;87.60
484;DHT22;228;48.922;12.198;2023-08-21T06:00:00;25.20;86.40
484;DHT22;228;48.922;12.198;2023-08-21T06:02:30;25.30;85.40
484;DHT22;228;48.922;12.198;2023-08-21T06:04:58;25.50;85.00
484;DHT22;228;48.922;12.198;2023-08-21T06:07:24;25.70;84.20
484;DHT22;228;48.922;12.198;2023-08-21T06:09:49;25.90;82.90
484;DHT22;228;48.922;12.198;2023-08-21T06:12:15;26.10;82.20
484;DHT22;228;48.922;12.198;2023-08-21T06:14:42;26.20;80.90
484;DHT22;228;48.922;12.198;2023-08-21T06:17:09;26.10;80.10
484;DHT22;228;48.922;12.198;2023-08-21T06:19:35;26.10;80.20
484;DHT22;228;48.922;12.198;2023-08-21T06:22:01;26.40;79.00
484;DHT22;228;48.922;12.198;2023-08-21T06:24:27;26.50;78.50
484;DHT22;228;48.922;12.198;2023-08-21T06:27:01;26.60;78.30
484;DHT22;228;48.922;12.198;2023-08-21T06:29:28;26.50;78.50
484;DHT22;228;48.922;12.198;2023-08-21T06:31:54;26.50;78.40
484;DHT22;228;48.922;12.198;2023-08-21T06:34:21;26.70;78.00
484;DHT22;228;48.922;12.198;2023-08-21T06:36:47;26.90;77.50
484;DHT22;228;48.922;12.198;2023-08-21T06:39:13;26.90;76.70
484;DHT22;228;48.922;12.198;2023-08-21T06:41:39;26.50;77.10
484;DHT22;228;48.922;12.198;2023-08-21T06:44:05;26.50;77.70
484;DHT22;228;48.922;12.198;2023-08-21T06:46:31;27.00;77.00
484;DHT22;228;48.922;12.198;2023-08-21T06:48:57;27.30;75.00
484;DHT22;228;48.922;12.198;2023-08-21T06:51:23;27.30;74.10
484;DHT22;228;48.922;12.198;2023-08-21T06:53:49;27.00;75.20
484;DHT22;228;48.922;12.198;2023-08-21T06:56:15;27.10;76.30
484;DHT22;228;48.922;12.198;2023-08-21T06:58:41;27.00;75.60
484;DHT22;228;48.922;12.198;2023-08-21T07:01:07;27.30;75.00
484;DHT22;228;48.922;12.198;2023-08-21T07:03:33;27.70;74.30
484;DHT22;228;48.922;12.198;2023-08-21T07:06:00;28.00;73.70
484;DHT22;228;48.922;12.198;2023-08-21T07:08:26;28.20;74.00
484;DHT22;228;48.922;12.198;2023-08-21T07:10:54;28.20;74.30
484;DHT22;228;48.922;12.198;2023-08-21T07:13:20;28.40;72.00
484;DHT22;228;48.922;12.198;2023-08-21T07:15:47;28.30;70.90
484;DHT22;228;48.922;12.198;2023-08-21T07:18:13;28.40;71.00
484;DHT22;228;48.922;12.198;2023-08-21T07:20:39;28.40;70.40
484;DHT22;228;48.922;12.198;2023-08-21T07:23:05;28.20;71.50
484;DHT22;228;48.922;12.198;2023-08-21T07:25:31;28.40;70.90
484;DHT22;228;48.922;12.198;2023-08-21T07:30:24;29.00;67.00
484;DHT22;228;48.922;12.198;2023-08-21T07:32:50;29.10;67.70
484;DHT22;228;48.922;12.198;2023-08-21T07:35:16;29.00;68.70
484;DHT22;228;48.922;12.198;2023-08-21T07:37:45;28.80;66.10
484;DHT22;228;48.922;12.198;2023-08-21T07:40:12;28.80;67.90
484;DHT22;228;48.922;12.198;2023-08-21T07:42:38;29.20;67.00
484;DHT22;228;48.922;12.198;2023-08-21T07:45:04;29.20;65.40
484;DHT22;228;48.922;12.198;2023-08-21T07:47:31;29.10;66.00
484;DHT22;228;48.922;12.198;2023-08-21T07:49:57;29.30;66.00
484;DHT22;228;48.922;12.198;2023-08-21T07:52:23;29.40;65.70
484;DHT22;228;48.922;12.198;2023-08-21T07:54:53;29.50;65.10
484;DHT22;228;48.922;12.198;2023-08-21T07:57:19;29.40;64.60
484;DHT22;228;48.922;12.198;2023-08-21T07:59:45;29.60;64.50
484;DHT22;228;48.922;12.198;2023-08-21T08:02:11;29.70;64.10
484;DHT22;228;48.922;12.198;2023-08-21T08:04:40;29.70;64.80
484;DHT22;228;48.922;12.198;2023-08-21T08:07:08;29.90;65.10
484;DHT22;228;48.922;12.198;2023-08-21T08:09:34;30.10;65.40
484;DHT22;228;48.922;12.198;2023-08-21T08:12:00;30.30;64.10
484;DHT22;228;48.922;12.198;2023-08-21T08:14:26;30.40;63.40
484;DHT22;228;48.922;12.198;2023-08-21T08:16:52;30.20;65.30
484;DHT22;228;48.922;12.198;2023-08-21T08:19:19;30.00;70.00
484;DHT22;228;48.922;12.198;2023-08-21T08:21:45;30.00;68.60
484;DHT22;228;48.922;12.198;2023-08-21T08:24:11;29.80;66.30
484;DHT22;228;48.922;12.198;2023-08-21T08:26:38;30.10;64.50
484;DHT22;228;48.922;12.198;2023-08-21T08:29:04;29.80;65.70
484;DHT22;228;48.922;12.198;2023-08-21T08:31:30;30.00;64.50
484;DHT22;228;48.922;12.198;2023-08-21T08:33:56;30.50;61.90
484;DHT22;228;48.922;12.198;2023-08-21T08:36:22;30.70;66.00
484;DHT22;228;48.922;12.198;2023-08-21T08:38:48;30.50;68.70
484;DHT22;228;48.922;12.198;2023-08-21T08:41:30;30.60;66.20
484;DHT22;228;48.922;12.198;2023-08-21T08:43:59;30.40;64.80
484;DHT22;228;48.922;12.198;2023-08-21T08:46:29;30.60;64.60
484;DHT22;228;48.922;12.198;2023-08-21T08:48:56;31.00;64.80
484;DHT22;228;48.922;12.198;2023-08-21T08:51:28;31.20;63.90
484;DHT22;228;48.922;12.198;2023-08-21T08:53:56;31.00;62.20
484;DHT22;228;48.922;12.198;2023-08-21T08:56:24;31.20;65.60
484;DHT22;228;48.922;12.198;2023-08-21T08:58:51;31.90;67.40
484;DHT22;228;48.922;12.198;2023-08-21T09:01:17;31.40;66.10
484;DHT22;228;48.922;12.198;2023-08-21T09:03:43;31.00;68.10
484;DHT22;228;48.922;12.198;2023-08-21T09:06:10;31.30;67.70
484;DHT22;228;48.922;12.198;2023-08-21T09:08:36;31.10;65.20
484;DHT22;228;48.922;12.198;2023-08-21T09:11:02;31.40;64.90
484;DHT22;228;48.922;12.198;2023-08-21T09:13:31;31.50;63.30
484;DHT22;228;48.922;12.198;2023-08-21T09:15:58;31.10;62.70
484;DHT22;228;48.922;12.198;2023-08-21T09:18:25;31.20;63.10
484;DHT22;228;48.922;12.198;2023-08-21T09:20:51;31.80;63.80
484;DHT22;228;48.922;12.198;2023-08-21T09:23:18;31.80;67.40
484;DHT22;228;48.922;12.198;2023-08-21T09:25:46;32.00;65.00
484;DHT22;228;48.922;12.198;2023-08-21T09:28:19;31.60;64.20
484;DHT22;228;48.922;12.198;2023-08-21T09:30:52;31.70;65.90
484;DHT22;228;48.922;12.198;2023-08-21T09:33:19;31.60;63.50
484;DHT22;228;48.922;12.198;2023-08-21T09:35:47;31.60;64.00
484;DHT22;228;48.922;12.198;2023-08-21T09:38:14;31.70;64.60
484;DHT22;228;48.922;12.198;2023-08-21T09:40:41;32.20;62.50
484;DHT22;228;48.922;12.198;2023-08-21T09:43:09;32.70;63.30
484;DHT22;228;48.922;12.198;2023-08-21T09:45:37;32.40;58.60
484;DHT22;228;48.922;12.198;2023-08-21T09:48:03;32.10;59.60
484;DHT22;228;48.922;12.198;2023-08-21T09:50:30;32.30;63.80
484;DHT22;228;48.922;12.198;2023-08-21T09:52:57;32.60;62.90
484;DHT22;228;48.922;12.198;2023-08-21T09:55:42;33.10;61.40
484;DHT22;228;48.922;12.198;2023-08-21T09:58:08;33.30;57.90
484;DHT22;228;48.922;12.198;2023-08-21T10:00:38;33.70;63.60
484;DHT22;228;48.922;12.198;2023-08-21T10:03:07;33.70;61.70
484;DHT22;228;48.922;12.198;2023-08-21T10:05:36;34.20;62.50
484;DHT22;228;48.922;12.198;2023-08-21T10:08:04;34.40;64.40
484;DHT22;228;48.922;12.198;2023-08-21T10:10:32;34.30;63.00
484;DHT22;228;48.922;12.198;2023-08-21T10:12:59;33.70;58.50
484;DHT22;228;48.922;12.198;2023-08-21T10:15:28;33.40;60.00
484;DHT22;228;48.922;12.198;2023-08-21T10:17:54;33.80;61.70
484;DHT22;228;48.922;12.198;2023-08-21T10:20:25;34.10;57.40
484;DHT22;228;48.922;12.198;2023-08-21T10:23:00;34.50;59.20
484;DHT22;228;48.922;12.198;2023-08-21T10:25:26;34.20;58.30
484;DHT22;228;48.922;12.198;2023-08-21T10:27:58;34.10;57.10
484;DHT22;228;48.922;12.198;2023-08-21T10:30:29;33.60;58.10
484;DHT22;228;48.922;12.198;2023-08-21T10:32:57;33.40;58.00
484;DHT22;228;48.922;12.198;2023-08-21T10:35:31;33.70;63.90
484;DHT22;228;48.922;12.198;2023-08-21T10:38:14;34.40;59.60
484;DHT22;228;48.922;12.198;2023-08-21T10:41:13;35.10;63.00
484;DHT22;228;48.922;12.198;2023-08-21T10:43:46;35.30;64.20
484;DHT22;228;48.922;12.198;2023-08-21T10:46:12;35.20;66.10
484;DHT22;228;48.922;12.198;2023-08-21T10:48:39;35.20;60.90
484;DHT22;228;48.922;12.198;2023-08-21T10:51:06;35.10;68.90
484;DHT22;228;48.922;12.198;2023-08-21T10:53:34;35.00;67.80
484;DHT22;228;48.922;12.198;2023-08-21T10:56:04;35.30;76.50
484;DHT22;228;48.922;12.198;2023-08-21T10:58:44;35.60;73.90
484;DHT22;228;48.922;12.198;2023-08-21T11:01:13;36.00;70.20
484;DHT22;228;48.922;12.198;2023-08-21T11:03:40;36.00;70.30
484;DHT22;228;48.922;12.198;2023-08-21T11:08:35;35.80;68.10
484;DHT22;228;48.922;12.198;2023-08-21T11:11:05;35.80;72.50
484;DHT22;228;48.922;12.198;2023-08-21T11:13:32;35.60;67.30
484;DHT22;228;48.922;12.198;2023-08-21T11:16:02;35.70;70.30
484;DHT22;228;48.922;12.198;2023-08-21T11:18:33;35.10;65.90
484;DHT22;228;48.922;12.198;2023-08-21T11:21:06;35.70;67.50
484;DHT22;228;48.922;12.198;2023-08-21T11:28:31;40.20;60.80
484;DHT22;228;48.922;12.198;2023-08-21T11:30:59;40.40;50.70
484;DHT22;228;48.922;12.198;2023-08-21T11:33:26;41.70;33.70
484;DHT22;228;48.922;12.198;2023-08-21T11:35:52;43.30;36.80
484;DHT22;228;48.922;12.198;2023-08-21T11:38:24;44.60;39.40
484;DHT22;228;48.922;12.198;2023-08-21T11:41:02;46.60;44.80
484;DHT22;228;48.922;12.198;2023-08-21T11:43:38;47.80;48.40
484;DHT22;228;48.922;12.198;2023-08-21T11:46:08;47.70;47.80
484;DHT22;228;48.922;12.198;2023-08-21T11:48:40;49.00;47.50
484;DHT22;228;48.922;12.198;2023-08-21T11:51:07;49.60;50.00
484;DHT22;228;48.922;12.198;2023-08-21T11:53:38;47.70;47.10
484;DHT22;228;48.922;12.198;2023-08-21T11:56:12;49.50;47.50
484;DHT22;228;48.922;12.198;2023-08-21T11:58:46;49.40;47.50
484;DHT22;228;48.922;12.198;2023-08-21T12:03:46;48.30;53.10
484;DHT22;228;48.922;12.198;2023-08-21T12:06:20;49.10;53.00
484;DHT22;228;48.922;12.198;2023-08-21T12:08:47;48.90;51.70
484;DHT22;228;48.922;12.198;2023-08-21T12:11:13;47.90;53.00
484;DHT22;228;48.922;12.198;2023-08-21T12:13:39;47.90;50.80
484;DHT22;228;48.922;12.198;2023-08-21T12:16:05;47.60;48.40
484;DHT22;228;48.922;12.198;2023-08-21T12:18:30;48.60;48.40
484;DHT22;228;48.922;12.198;2023-08-21T12:20:56;49.30;47.20
484;DHT22;228;48.922;12.198;2023-08-21T12:23:23;50.00;46.50
484;DHT22;228;48.922;12.198;2023-08-21T12:25:49;49.70;46.00
484;DHT22;228;48.922;12.198;2023-08-21T12:28:15;50.80;42.60
484;DHT22;228;48.922;12.198;2023-08-21T12:30:41;51.90;28.50
484;DHT22;228;48.922;12.198;2023-08-21T12:33:07;51.60;30.00
484;DHT22;228;48.922;12.198;2023-08-21T12:35:33;50.90;27.20
484;DHT22;228;48.922;12.198;2023-08-21T12:37:59;50.70;26.20
484;DHT22;228;48.922;12.198;2023-08-21T12:40:31;52.30;24.60
484;DHT22;228;48.922;12.198;2023-08-21T12:42:57;52.50;24.50
484;DHT22;228;48.922;12.198;2023-08-21T12:45:23;52.60;23.00
484;DHT22;228;48.922;12.198;2023-08-21T12:47:49;52.60;21.90
484;DHT22;228;48.922;12.198;2023-08-21T12:50:15;52.70;23.50
484;DHT22;228;48.922;12.198;2023-08-21T12:52:41;52.30;22.70
484;DHT22;228;48.922;12.198;2023-08-21T12:55:07;53.10;22.80
484;DHT22;228;48.922;12.198;2023-08-21T12:57:33;53.80;23.10
484;DHT22;228;48.922;12.198;2023-08-21T12:59:59;53.00;24.40
484;DHT22;228;48.922;12.198;2023-08-21T13:02:25;54.60;24.30
484;DHT22;228;48.922;12.198;2023-08-21T13:04:53;56.40;28.60
484;DHT22;228;48.922;12.198;2023-08-21T13:07:19;55.70;29.90
484;DHT22;228;48.922;12.198;2023-08-21T13:09:45;55.20;31.60
484;DHT22;228;48.922;12.198;2023-08-21T13:12:10;53.80;28.40
484;DHT22;228;48.922;12.198;2023-08-21T13:14:36;54.70;28.00
484;DHT22;228;48.922;12.198;2023-08-21T13:17:02;54.90;27.50
484;DHT22;228;48.922;12.198;2023-08-21T13:19:30;55.20;28.80
484;DHT22;228;48.922;12.198;2023-08-21T13:21:56;55.40;27.40
484;DHT22;228;48.922;12.198;2023-08-21T13:24:22;56.70;27.50
484;DHT22;228;48.922;12.198;2023-08-21T13:26:48;55.50;30.30
484;DHT22;228;48.922;12.198;2023-08-21T13:29:14;56.60;29.00
484;DHT22;228;48.922;12.198;2023-08-21T13:31:40;56.00;27.50
484;DHT22;228;48.922;12.198;2023-08-21T13:34:06;55.40;28.10
484;DHT22;228;48.922;12.198;2023-08-21T13:36:32;55.80;27.70
484;DHT22;228;48.922;12.198;2023-08-21T13:38:58;57.00;28.50
484;DHT22;228;48.922;12.198;2023-08-21T13:41:24;56.90;31.50
484;DHT22;228;48.922;12.198;2023-08-21T13:43:50;55.50;30.40
484;DHT22;228;48.922;12.198;2023-08-21T13:46:16;56.00;31.40
484;DHT22;228;48.922;12.198;2023-08-21T13:48:42;54.80;30.70
484;DHT22;228;48.922;12.198;2023-08-21T13:51:09;54.50;28.90
484;DHT22;228;48.922;12.198;2023-08-21T13:53:35;55.70;29.90
484;DHT22;228;48.922;12.198;2023-08-21T13:56:01;57.10;29.00
484;DHT22;228;48.922;12.198;2023-08-21T13:58:27;57.70;34.40
484;DHT22;228;48.922;12.198;2023-08-21T14:00:52;57.70;30.10
484;DHT22;228;48.922;12.198;2023-08-21T14:03:18;54.30;24.30
484;DHT22;228;48.922;12.198;2023-08-21T14:05:44;50.90;26.50
484;DHT22;228;48.922;12.198;2023-08-21T14:08:10;52.70;25.50
484;DHT22;228;48.922;12.198;2023-08-21T14:10:36;54.30;26.60
484;DHT22;228;48.922;12.198;2023-08-21T14:13:04;55.90;28.90
484;DHT22;228;48.922;12.198;2023-08-21T14:15:32;57.80;25.80
484;DHT22;228;48.922;12.198;2023-08-21T14:17:58;57.40;24.10
484;DHT22;228;48.922;12.198;2023-08-21T14:20:24;58.50;24.70
484;DHT22;228;48.922;12.198;2023-08-21T14:22:50;59.20;24.60
484;DHT22;228;48.922;12.198;2023-08-21T14:25:17;59.90;23.60
484;DHT22;228;48.922;12.198;2023-08-21T14:27:43;58.90;23.60
484;DHT22;228;48.922;12.198;2023-08-21T14:30:09;58.00;23.40
484;DHT22;228;48.922;12.198;2023-08-21T14:32:35;56.40;25.20
484;DHT22;228;48.922;12.198;2023-08-21T14:35:03;56.30;24.10
484;DHT22;228;48.922;12.198;2023-08-21T14:37:29;56.40;23.20
484;DHT22;228;48.922;12.198;2023-08-21T14:39:55;55.50;24.10
484;DHT22;228;48.922;12.198;2023-08-21T14:42:21;55.50;23.20
484;DHT22;228;48.922;12.198;2023-08-21T14:44:47;55.30;23.30
484;DHT22;228;48.922;12.198;2023-08-21T14:47:13;55.10;23.80
484;DHT22;228;48.922;12.198;2023-08-21T14:49:39;54.90;24.30
484;DHT22;228;48.922;12.198;2023-08-21T14:52:05;55.20;23.60
484;DHT22;228;48.922;12.198;2023-08-21T14:54:33;54.60;23.30
484;DHT22;228;48.922;12.198;2023-08-21T14:57:00;53.80;24.60
484;DHT22;228;48.922;12.198;2023-08-21T14:59:26;53.40;23.90
484;DHT22;228;48.922;12.198;2023-08-21T15:01:51;51.90;24.00
484;DHT22;228;48.922;12.198;2023-08-21T15:04:17;52.30;22.90
484;DHT22;228;48.922;12.198;2023-08-21T15:06:43;52.80;23.20
484;DHT22;228;48.922;12.198;2023-08-21T15:09:09;53.80;21.80
484;DHT22;228;48.922;12.198;2023-08-21T15:11:35;53.80;22.20
484;DHT22;228;48.922;12.198;2023-08-21T15:14:02;51.40;22.50
484;DHT22;228;48.922;12.198;2023-08-21T15:16:29;51.10;22.50
484;DHT22;228;48.922;12.198;2023-08-21T15:18:55;51.50;23.00
484;DHT22;228;48.922;12.198;2023-08-21T15:21:21;50.40;19.60
484;DHT22;228;48.922;12.198;2023-08-21T15:23:47;48.80;21.20
484;DHT22;228;48.922;12.198;2023-08-21T15:26:13;46.00;23.50
484;DHT22;228;48.922;12.198;2023-08-21T15:28:39;45.90;23.60
484;DHT22;228;48.922;12.198;2023-08-21T15:31:05;47.20;23.20
484;DHT22;228;48.922;12.198;2023-08-21T15:33:33;48.50;22.20
484;DHT22;228;48.922;12.198;2023-08-21T15:35:59;48.00;21.90
484;DHT22;228;48.922;12.198;2023-08-21T15:38:25;47.40;23.20
484;DHT22;228;48.922;12.198;2023-08-21T15:40:51;47.30;25.60
484;DHT22;228;48.922;12.198;2023-08-21T15:43:17;44.40;25.60
484;DHT22;228;48.922;12.198;2023-08-21T15:45:42;42.90;26.80
484;DHT22;228;48.922;12.198;2023-08-21T15:48:08;41.80;31.80
484;DHT22;228;48.922;12.198;2023-08-21T15:50:34;40.30;30.40
484;DHT22;228;48.922;12.198;2023-08-21T15:53:00;39.40;31.60
484;DHT22;228;48.922;12.198;2023-08-21T15:55:26;38.80;32.90
484;DHT22;228;48.922;12.198;2023-08-21T15:57:52;38.40;33.30
484;DHT22;228;48.922;12.198;2023-08-21T16:00:18;38.10;34.90
484;DHT22;228;48.922;12.198;2023-08-21T16:02:47;37.60;34.60
484;DHT22;228;48.922;12.198;2023-08-21T16:05:13;36.80;36.00
484;DHT22;228;48.922;12.198;2023-08-21T16:07:39;36.80;36.20
484;DHT22;228;48.922;12.198;2023-08-21T16:10:07;36.90;36.50
484;DHT22;228;48.922;12.198;2023-08-21T16:12:37;36.80;36.20
484;DHT22;228;48.922;12.198;2023-08-21T16:17:30;38.60;34.00
484;DHT22;228;48.922;12.198;2023-08-21T16:19:56;39.80;32.80
484;DHT22;228;48.922;12.198;2023-08-21T16:24:48;43.30;27.80
484;DHT22;228;48.922;12.198;2023-08-21T16:27:14;44.00;27.40
484;DHT22;228;48.922;12.198;2023-08-21T16:29:40;43.80;27.60
484;DHT22;228;48.922;12.198;2023-08-21T16:32:06;42.60;28.80
484;DHT22;228;48.922;12.198;2023-08-21T16:34:34;42.30;28.80
484;DHT22;228;48.922;12.198;2023-08-21T16:37:01;42.40;28.60
484;DHT22;228;48.922;12.198;2023-08-21T16:39:29;41.70;29.50
484;DHT22;228;48.922;12.198;2023-08-21T16:41:55;40.50;30.70
484;DHT22;228;48.922;12.198;2023-08-21T16:44:21;40.10;31.30
484;DHT22;228;48.922;12.198;2023-08-21T16:46:48;40.10;31.60
484;DHT22;228;48.922;12.198;2023-08-21T16:49:14;40.10;31.80
484;DHT22;228;48.922;12.198;2023-08-21T16:51:40;40.00;32.10
484;DHT22;228;48.922;12.198;2023-08-21T16:54:07;39.60;32.70
484;DHT22;228;48.922;12.198;2023-08-21T16:58:59;38.50;34.40
484;DHT22;228;48.922;12.198;2023-08-21T17:03:53;37.90;35.30
484;DHT22;228;48.922;12.198;2023-08-21T17:06:22;37.60;36.00
484;DHT22;228;48.922;12.198;2023-08-21T17:08:49;37.50;36.60
484;DHT22;228;48.922;12.198;2023-08-21T17:11:15;37.30;36.70
484;DHT22;228;48.922;12.198;2023-08-21T17:13:41;37.20;37.70
484;DHT22;228;48.922;12.198;2023-08-21T17:16:07;37.00;38.00
484;DHT22;228;48.922;12.198;2023-08-21T17:18:33;36.70;38.90
484;DHT22;228;48.922;12.198;2023-08-21T17:20:59;36.30;39.30
484;DHT22;228;48.922;12.198;2023-08-21T17:23:25;36.20;40.20
484;DHT22;228;48.922;12.198;2023-08-21T17:25:50;36.20;42.70
484;DHT22;228;48.922;12.198;2023-08-21T17:28:16;35.60;41.30
484;DHT22;228;48.922;12.198;2023-08-21T17:30:42;35.50;42.60
484;DHT22;228;48.922;12.198;2023-08-21T17:42:55;33.40;55.60
484;DHT22;228;48.922;12.198;2023-08-21T17:45:21;33.30;57.20
484;DHT22;228;48.922;12.198;2023-08-21T17:50:13;33.00;52.60
484;DHT22;228;48.922;12.198;2023-08-21T17:52:39;32.70;53.00
484;DHT22;228;48.922;12.198;2023-08-21T17:55:06;32.60;53.70
484;DHT22;228;48.922;12.198;2023-08-21T17:57:32;32.50;55.10
484;DHT22;228;48.922;12.198;2023-08-21T18:02:35;32.40;52.20
484;DHT22;228;48.922;12.198;2023-08-21T18:05:03;32.50;53.40
484;DHT22;228;48.922;12.198;2023-08-21T18:07:32;32.60;52.90
484;DHT22;228;48.922;12.198;2023-08-21T18:10:02;32.70;53.10
484;DHT22;228;48.922;12.198;2023-08-21T18:12:28;32.50;53.70
484;DHT22;228;48.922;12.198;2023-08-21T18:14:55;32.40;53.90
484;DHT22;228;48.922;12.198;2023-08-21T18:17:23;32.10;55.10
484;DHT22;228;48.922;12.198;2023-08-21T18:19:49;31.90;56.60
484;DHT22;228;48.922;12.198;2023-08-21T18:22:15;31.90;56.80
484;DHT22;228;48.922;12.198;2023-08-21T18:24:42;31.80;56.60
484;DHT22;228;48.922;12.198;2023-08-21T18:27:08;31.50;50.70
484;DHT22;228;48.922;12.198;2023-08-21T18:29:36;31.50;51.20
484;DHT22;228;48.922;12.198;2023-08-21T18:32:08;31.30;51.60
484;DHT22;228;48.922;12.198;2023-08-21T18:34:35;31.20;52.40
484;DHT22;228;48.922;12.198;2023-08-21T18:37:07;30.90;53.20
484;DHT22;228;48.922;12.198;2023-08-21T18:39:33;30.70;53.80
484;DHT22;228;48.922;12.198;2023-08-21T18:41:59;30.80;53.30
484;DHT22;228;48.922;12.198;2023-08-21T18:44:25;30.90;53.00
484;DHT22;228;48.922;12.198;2023-08-21T18:46:52;31.00;53.10
484;DHT22;228;48.922;12.198;2023-08-21T18:49:18;31.10;53.00
484;DHT22;228;48.922;12.198;2023-08-21T18:51:44;31.10;53.00
484;DHT22;228;48.922;12.198;2023-08-21T18:54:11;31.00;53.30
484;DHT22;228;48.922;12.198;2023-08-21T18:56:37;30.90;53.50
484;DHT22;228;48.922;12.198;2023-08-21T18:59:03;30.90;53.70
484;DHT22;228;48.922;12.198;2023-08-21T19:01:29;30.70;55.80
484;DHT22;228;48.922;12.198;2023-08-21T19:03:55;30.50;56.10
484;DHT22;228;48.922;12.198;2023-08-21T19:06:20;30.40;56.70
484;DHT22;228;48.922;12.198;2023-08-21T19:08:46;30.20;56.80
484;DHT22;228;48.922;12.198;2023-08-21T19:11:12;30.00;57.30
484;DHT22;228;48.922;12.198;2023-08-21T19:13:38;29.90;58.30
484;DHT22;228;48.922;12.198;2023-08-21T19:16:04;29.80;59.50
484;DHT22;228;48.922;12.198;2023-08-21T19:18:32;29.70;61.40
484;DHT22;228;48.922;12.198;2023-08-21T19:23:25;29.50;59.10
484;DHT22;228;48.922;12.198;2023-08-21T19:25:51;29.30;62.80
484;DHT22;228;48.922;12.198;2023-08-21T19:30:45;29.10;61.80
484;DHT22;228;48.922;12.198;2023-08-21T19:33:11;29.00;63.40
484;DHT22;228;48.922;12.198;2023-08-21T19:35:37;28.90;61.40
484;DHT22;228;48.922;12.198;2023-08-21T19:40:37;28.80;79.30
484;DHT22;228;48.922;12.198;2023-08-21T19:43:04;28.80;82.60
484;DHT22;228;48.922;12.198;2023-08-21T19:47:57;28.60;87.40
484;DHT22;228;48.922;12.198;2023-08-21T19:50:23;28.40;82.60
484;DHT22;228;48.922;12.198;2023-08-21T19:52:50;28.70;83.90
484;DHT22;228;48.922;12.198;2023-08-21T19:55:16;28.80;82.20
484;DHT22;228;48.922;12.198;2023-08-21T19:57:42;28.70;81.50
484;DHT22;228;48.922;12.198;2023-08-21T20:00:09;28.60;83.50
484;DHT22;228;48.922;12.198;2023-08-21T20:02:38;28.80;84.60
484;DHT22;228;48.922;12.198;2023-08-21T20:05:06;29.10;80.30
484;DHT22;228;48.922;12.198;2023-08-21T20:07:32;29.00;82.50
484;DHT22;228;48.922;12.198;2023-08-21T20:09:59;29.00;81.70
484;DHT22;228;48.922;12.198;2023-08-21T20:12:25;29.10;86.00
484;DHT22;228;48.922;12.198;2023-08-21T20:14:51;29.20;81.80
484;DHT22;228;48.922;12.198;2023-08-21T20:17:17;29.20;82.30
484;DHT22;228;48.922;12.198;2023-08-21T20:19:43;29.10;86.20
484;DHT22;228;48.922;12.198;2023-08-21T20:22:11;29.20;85.70
484;DHT22;228;48.922;12.198;2023-08-21T20:24:37;29.20;83.10
484;DHT22;228;48.922;12.198;2023-08-21T20:27:04;29.20;83.40
484;DHT22;228;48.922;12.198;2023-08-21T20:29:30;29.20;83.00
484;DHT22;228;48.922;12.198;2023-08-21T20:31:56;29.20;83.80
484;DHT22;228;48.922;12.198;2023-08-21T20:34:22;29.10;85.30
484;DHT22;228;48.922;12.198;2023-08-21T20:36:48;29.00;76.50
484;DHT22;228;48.922;12.198;2023-08-21T20:39:14;28.90;77.20
484;DHT22;228;48.922;12.198;2023-08-21T20:41:40;29.00;76.50
484;DHT22;228;48.922;12.198;2023-08-21T20:44:06;29.00;73.40
484;DHT22;228;48.922;12.198;2023-08-21T20:46:32;28.80;73.30
484;DHT22;228;48.922;12.198;2023-08-21T20:48:58;28.70;73.50
484;DHT22;228;48.922;12.198;2023-08-21T20:51:25;28.70;73.20
484;DHT22;228;48.922;12.198;2023-08-21T20:53:51;28.70;72.50
484;DHT22;228;48.922;12.198;2023-08-21T20:56:17;28.70;72.60
484;DHT22;228;48.922;12.198;2023-08-21T20:58:43;28.70;73.20
484;DHT22;228;48.922;12.198;2023-08-21T21:01:09;28.60;73.20
484;DHT22;228;48.922;12.198;2023-08-21T21:03:35;28.50;73.80
484;DHT22;228;48.922;12.198;2023-08-21T21:06:01;28.50;75.50